createdAt,value
2022-10-17T00:01:33.762Z,101759.06
2022-10-17T00:04:00.309Z,101753.06
2022-10-17T00:06:26.531Z,101753.88
2022-10-17T00:08:52.776Z,101756.56
2022-10-17T00:11:22.438Z,101745.50
2022-10-17T00:13:50.100Z,101756.56
2022-10-17T00:16:23.714Z,101762.63
2022-10-17T00:18:50.247Z,101761.00
2022-10-17T00:21:19.868Z,101747.44
2022-10-17T00:23:46.980Z,101765.41
2022-10-17T00:26:14.485Z,101753.31
2022-10-17T00:28:40.822Z,101755.16
2022-10-17T00:31:09.438Z,101765.59
2022-10-17T00:33:36.353Z,101768.31
2022-10-17T00:36:07.841Z,101757.28
2022-10-17T00:38:34.875Z,101766.75
2022-10-17T00:41:02.117Z,101749.75
2022-10-17T00:43:29.754Z,101765.16
2022-10-17T00:45:56.499Z,101769.66
2022-10-17T00:48:25.043Z,101774.03
2022-10-17T00:50:52.287Z,101762.13
2022-10-17T00:53:18.751Z,101769.75
2022-10-17T00:55:50.771Z,101745.06
2022-10-17T00:58:17.564Z,101768.06
2022-10-17T01:00:44.732Z,101773.28
2022-10-17T01:03:11.251Z,101768.97
2022-10-17T01:05:38.310Z,101774.16
2022-10-17T01:08:05.353Z,101768.06
2022-10-17T01:10:53.371Z,101746.91
2022-10-17T01:13:31.223Z,101761.94
2022-10-17T01:16:17.131Z,101767.28
2022-10-17T01:18:49.939Z,101756.28
2022-10-17T01:21:25.418Z,101747.66
2022-10-17T01:24:22.959Z,101771.81
2022-10-17T01:27:07.961Z,101765.03
2022-10-17T01:30:02.079Z,101765.91
2022-10-17T01:32:36.658Z,101758.84
2022-10-17T01:35:11.876Z,101754.69
2022-10-17T01:37:45.168Z,101771.25
2022-10-17T01:40:25.713Z,101768.72
2022-10-17T01:43:16.685Z,101771.22
2022-10-17T01:45:47.430Z,101773.19
2022-10-17T01:48:22.917Z,101777.62
2022-10-17T01:50:52.932Z,101764.91
2022-10-17T01:53:23.245Z,101771.66
2022-10-17T01:55:51.401Z,101774.34
2022-10-17T01:58:23.765Z,101776.94
2022-10-17T02:00:50.747Z,101764.34
2022-10-17T02:03:19.417Z,101787.53
2022-10-17T02:05:46.070Z,101755.09
2022-10-17T02:08:12.688Z,101786.66
2022-10-17T02:10:55.263Z,101771.28
2022-10-17T02:13:43.399Z,101751.53
2022-10-17T02:16:19.019Z,101774.56
2022-10-17T02:19:16.298Z,101784.16
2022-10-17T02:22:09.480Z,101786.91
2022-10-17T02:24:42.688Z,101785.31
2022-10-17T02:27:12.722Z,101783.59
2022-10-17T02:29:50.493Z,101793.25
2022-10-17T02:32:46.740Z,101800.16
2022-10-17T02:35:17.076Z,101782.25
2022-10-17T02:37:45.127Z,101795.94
2022-10-17T02:40:14.291Z,101774.81
2022-10-17T02:42:44.234Z,101804.91
2022-10-17T02:45:11.091Z,101801.72
2022-10-17T02:47:51.222Z,101783.00
2022-10-17T02:50:21.649Z,101780.66
2022-10-17T02:52:58.316Z,101805.44
2022-10-17T02:55:36.616Z,101810.75
2022-10-17T02:58:11.856Z,101808.16
2022-10-17T03:00:39.325Z,101808.25
2022-10-17T03:03:22.990Z,101812.59
2022-10-17T03:05:50.133Z,101805.75
2022-10-17T03:08:16.484Z,101787.84
2022-10-17T03:10:42.710Z,101787.22
2022-10-17T03:13:09.967Z,101811.88
2022-10-17T03:15:37.539Z,101800.97
2022-10-17T03:18:03.893Z,101811.28
2022-10-17T03:20:30.620Z,101817.31
2022-10-17T03:22:56.877Z,101815.53
2022-10-17T03:25:23.281Z,101818.28
2022-10-17T03:27:49.998Z,101817.28
2022-10-17T03:30:16.368Z,101823.19
2022-10-17T03:32:42.592Z,101825.03
2022-10-17T03:35:14.004Z,101818.09
2022-10-17T03:37:43.451Z,101825.69
2022-10-17T03:40:10.561Z,101822.81
2022-10-17T03:42:36.832Z,101795.56
2022-10-17T03:45:03.331Z,101821.75
2022-10-17T03:47:31.153Z,101833.00
2022-10-17T03:49:57.575Z,101830.41
2022-10-17T03:52:23.891Z,101832.16
2022-10-17T03:54:51.262Z,101839.16
2022-10-17T03:57:18.555Z,101830.59
2022-10-17T03:59:44.874Z,101827.41
2022-10-17T04:02:11.660Z,101832.53
2022-10-17T04:04:38.188Z,101836.78
2022-10-17T04:07:04.639Z,101839.41
2022-10-17T04:09:33.443Z,101840.34
2022-10-17T04:12:00.323Z,101845.56
2022-10-17T04:14:26.999Z,101847.34
2022-10-17T04:16:53.588Z,101846.63
2022-10-17T04:19:20.333Z,101846.66
2022-10-17T04:21:46.614Z,101852.75
2022-10-17T04:24:13.061Z,101851.09
2022-10-17T04:26:39.966Z,101858.88
2022-10-17T04:29:06.338Z,101852.72
2022-10-17T04:31:32.796Z,101856.31
2022-10-17T04:33:59.768Z,101847.78
2022-10-17T04:36:26.378Z,101849.47
2022-10-17T04:38:52.783Z,101846.91
2022-10-17T04:41:20.032Z,101850.47
2022-10-17T04:43:50.137Z,101856.56
2022-10-17T04:46:18.230Z,101841.13
2022-10-17T04:48:47.174Z,101847.03
2022-10-17T04:51:16.590Z,101856.66
2022-10-17T04:53:43.942Z,101856.69
2022-10-17T04:56:15.403Z,101854.88
2022-10-17T04:58:42.858Z,101873.00
2022-10-17T05:01:11.950Z,101868.72
2022-10-17T05:03:39.291Z,101862.66
2022-10-17T05:06:10.884Z,101866.09
2022-10-17T05:08:37.788Z,101870.50
2022-10-17T05:11:05.828Z,101870.47
2022-10-17T05:13:32.982Z,101869.50
2022-10-17T05:16:01.159Z,101883.31
2022-10-17T05:18:28.974Z,101872.00
2022-10-17T05:20:56.216Z,101858.19
2022-10-17T05:23:23.441Z,101877.81
2022-10-17T05:25:55.119Z,101871.72
2022-10-17T05:28:23.966Z,101883.72
2022-10-17T05:30:51.038Z,101882.84
2022-10-17T05:33:17.331Z,101893.31
2022-10-17T05:35:44.543Z,101881.31
2022-10-17T05:38:11.075Z,101901.88
2022-10-17T05:40:39.357Z,101889.97
2022-10-17T05:43:06.037Z,101910.41
2022-10-17T05:45:32.635Z,101895.13
2022-10-17T05:47:59.336Z,101918.13
2022-10-17T05:50:25.839Z,101928.34
2022-10-17T05:52:54.451Z,101931.66
2022-10-17T05:55:22.617Z,101939.38
2022-10-17T05:57:53.863Z,101934.06
2022-10-17T06:00:22.111Z,101924.63
2022-10-17T06:02:49.360Z,101925.47
2022-10-17T06:05:16.219Z,101955.37
2022-10-17T06:07:42.787Z,101967.41
2022-10-17T06:10:10.000Z,101969.00
2022-10-17T06:12:36.441Z,101968.75
2022-10-17T06:15:02.877Z,101970.19
2022-10-17T06:17:30.356Z,101962.28
2022-10-17T06:19:57.562Z,101974.91
2022-10-17T06:22:23.871Z,101971.19
2022-10-17T06:24:50.487Z,101961.59
2022-10-17T06:27:16.735Z,101980.97
2022-10-17T06:29:42.988Z,101982.22
2022-10-17T06:32:12.761Z,101987.00
2022-10-17T06:34:42.029Z,101990.13
2022-10-17T06:37:08.710Z,101990.56
2022-10-17T06:39:38.229Z,101997.09
2022-10-17T06:42:04.820Z,101981.34
2022-10-17T06:44:35.594Z,102003.97
2022-10-17T06:47:20.242Z,102007.78
2022-10-17T06:49:46.965Z,102013.31
2022-10-17T06:52:13.522Z,102018.06
2022-10-17T06:54:40.062Z,101999.66
2022-10-17T06:57:06.709Z,102007.59
2022-10-17T06:59:33.913Z,102019.94
2022-10-17T07:02:01.250Z,102002.19
2022-10-17T07:04:28.521Z,102010.25
2022-10-17T07:06:54.902Z,102027.59
2022-10-17T07:09:22.778Z,102019.25
2022-10-17T07:11:49.332Z,102013.34
2022-10-17T07:14:16.121Z,102014.38
2022-10-17T07:16:42.605Z,102038.47
2022-10-17T07:19:10.117Z,102036.00
2022-10-17T07:21:39.146Z,102040.50
2022-10-17T07:24:07.471Z,102040.41
2022-10-17T07:26:34.188Z,102048.22
2022-10-17T07:29:01.793Z,102032.72
2022-10-17T07:31:28.438Z,102029.63
2022-10-17T07:33:54.976Z,102039.53
2022-10-17T07:36:21.254Z,102046.16
2022-10-17T07:38:47.758Z,102042.72
2022-10-17T07:41:19.205Z,102038.28
2022-10-17T07:43:48.178Z,102027.44
2022-10-17T07:46:15.454Z,102044.66
2022-10-17T07:48:41.819Z,102048.06
2022-10-17T07:51:09.217Z,102039.75
2022-10-17T07:53:37.358Z,102036.31
2022-10-17T07:56:06.612Z,102046.63
2022-10-17T07:58:32.885Z,102039.94
2022-10-17T08:01:03.771Z,102038.56
2022-10-17T08:03:30.316Z,102036.34
2022-10-17T08:06:03.475Z,102041.88
2022-10-17T08:08:30.037Z,102036.34
2022-10-17T08:10:56.557Z,102037.75
2022-10-17T08:13:23.318Z,102037.94
2022-10-17T08:15:49.847Z,102045.47
2022-10-17T08:18:16.236Z,102044.22
2022-10-17T08:20:42.498Z,102046.16
2022-10-17T08:23:09.040Z,102045.25
2022-10-17T08:25:35.289Z,102045.00
2022-10-17T08:28:01.577Z,102034.34
2022-10-17T08:30:30.644Z,102039.59
2022-10-17T08:32:56.939Z,102037.28
2022-10-17T08:35:23.777Z,102042.53
2022-10-17T08:37:50.312Z,102042.12
2022-10-17T08:40:20.867Z,102000.47
2022-10-17T08:43:03.810Z,102037.13
2022-10-17T08:46:08.960Z,102033.59
2022-10-17T08:48:43.956Z,102043.84
2022-10-17T08:51:17.567Z,102044.19
2022-10-17T08:53:53.562Z,102039.25
2022-10-17T08:56:43.967Z,102039.81
2022-10-17T08:59:14.426Z,102040.97
2022-10-17T09:02:07.056Z,102038.62
2022-10-17T09:04:51.980Z,102044.94
2022-10-17T09:07:28.100Z,102038.97
2022-10-17T09:10:21.388Z,102042.56
2022-10-17T09:12:56.745Z,102044.78
2022-10-17T09:15:41.872Z,102046.19
2022-10-17T09:18:17.620Z,102046.53
2022-10-17T09:20:55.100Z,102040.44
2022-10-17T09:23:24.105Z,102044.00
2022-10-17T09:25:59.843Z,102049.12
2022-10-17T09:28:33.715Z,102030.34
2022-10-17T09:31:04.527Z,102029.91
2022-10-17T09:33:53.377Z,102042.75
2022-10-17T09:36:21.568Z,102026.87
2022-10-17T09:38:52.910Z,102043.75
2022-10-17T09:41:45.836Z,102043.87
2022-10-17T09:44:54.363Z,102046.06
2022-10-17T09:47:30.239Z,102044.00
2022-10-17T09:49:57.053Z,102040.41
2022-10-17T09:52:32.325Z,102037.78
2022-10-17T09:55:04.500Z,102033.19
2022-10-17T09:57:57.714Z,102037.56
2022-10-17T10:00:29.846Z,102032.91
2022-10-17T10:03:16.756Z,102032.31
2022-10-17T10:06:26.879Z,102036.63
2022-10-17T10:08:55.703Z,102030.13
2022-10-17T10:11:27.130Z,102023.44
2022-10-17T10:13:53.689Z,102020.28
2022-10-17T10:16:31.520Z,102023.19
2022-10-17T10:18:58.786Z,102018.44
2022-10-17T10:21:27.141Z,102016.00
2022-10-17T10:24:01.990Z,102022.59
2022-10-17T10:26:34.211Z,102011.00
2022-10-17T10:29:05.878Z,102006.28
2022-10-17T10:31:35.658Z,102012.81
2022-10-17T10:34:14.373Z,102018.62
2022-10-17T10:36:52.604Z,102017.31
2022-10-17T10:39:34.766Z,102010.78
2022-10-17T10:42:02.876Z,102014.50
2022-10-17T10:44:31.158Z,102015.03
2022-10-17T10:47:17.385Z,102005.91
2022-10-17T10:49:44.230Z,101993.22
2022-10-17T10:52:18.414Z,102015.75
2022-10-17T10:55:10.735Z,102001.91
2022-10-17T10:57:38.034Z,102005.81
2022-10-17T11:00:15.464Z,102010.16
2022-10-17T11:02:52.978Z,101994.56
2022-10-17T11:05:37.684Z,101996.47
2022-10-17T11:08:13.961Z,101996.81
2022-10-17T11:11:18.272Z,101995.03
2022-10-17T11:13:51.835Z,101990.06
2022-10-17T11:16:20.517Z,101993.84
2022-10-17T11:19:03.601Z,101992.72
2022-10-17T11:21:59.372Z,101982.87
2022-10-17T11:24:51.851Z,101991.56
2022-10-17T11:27:18.375Z,101986.03
2022-10-17T11:29:45.658Z,101982.03
2022-10-17T11:32:17.805Z,101978.59
2022-10-17T11:34:47.623Z,101982.34
2022-10-17T11:37:27.315Z,101989.28
2022-10-17T11:40:06.825Z,101983.22
2022-10-17T11:42:38.541Z,101984.12
2022-10-17T11:45:11.711Z,101974.16
2022-10-17T11:47:40.639Z,101969.37
2022-10-17T11:53:17.498Z,101949.28
2022-10-17T11:55:44.609Z,101947.06
2022-10-17T12:01:23.664Z,101960.97
2022-10-17T12:04:10.682Z,101961.91
2022-10-17T12:06:48.997Z,101965.69
2022-10-17T12:09:15.445Z,101963.16
2022-10-17T12:11:57.707Z,101955.87
2022-10-17T12:14:33.283Z,101956.63
2022-10-17T12:17:01.159Z,101957.19
2022-10-17T12:19:37.717Z,101944.00
2022-10-17T12:22:12.815Z,101940.38
2022-10-17T12:24:44.754Z,101954.00
2022-10-17T12:27:45.914Z,101952.91
2022-10-17T12:30:12.528Z,101932.22
2022-10-17T12:33:08.026Z,101948.06
2022-10-17T12:35:37.093Z,101945.91
2022-10-17T12:38:15.210Z,101938.63
2022-10-17T12:40:46.324Z,101949.59
2022-10-17T12:43:15.046Z,101940.66
2022-10-17T12:45:52.370Z,101943.66
2022-10-17T12:48:34.288Z,101940.09
2022-10-17T12:51:34.323Z,101940.50
2022-10-17T12:53:59.945Z,101945.13
2022-10-17T12:56:40.270Z,101946.78
2022-10-17T12:59:10.078Z,101936.28
2022-10-17T13:01:38.166Z,101930.91
2022-10-17T13:04:06.550Z,101932.19
2022-10-17T13:06:40.275Z,101927.88
2022-10-17T13:09:18.697Z,101927.00
2022-10-17T13:11:45.082Z,101926.34
2022-10-17T13:14:13.619Z,101913.72
2022-10-17T13:17:00.728Z,101927.88
2022-10-17T13:19:40.231Z,101921.53
2022-10-17T13:22:19.039Z,101918.63
2022-10-17T13:24:46.232Z,101922.97
2022-10-17T13:27:33.183Z,101920.12
2022-10-17T13:30:01.866Z,101919.41
2022-10-17T13:32:37.170Z,101908.41
2022-10-17T13:35:11.997Z,101901.09
2022-10-17T13:37:40.430Z,101917.34
2022-10-17T13:40:40.195Z,101917.47
2022-10-17T13:42:56.136Z,101907.63
2022-10-17T13:45:37.317Z,101902.81
2022-10-17T13:48:06.372Z,101903.63
2022-10-17T13:50:44.546Z,101906.84
2022-10-17T13:53:26.502Z,101890.25
2022-10-17T13:56:27.209Z,101918.37
2022-10-17T13:58:57.462Z,101909.22
2022-10-17T14:01:26.434Z,101908.22
2022-10-17T14:04:07.281Z,101902.03
2022-10-17T14:06:34.735Z,101908.41
2022-10-17T14:09:04.101Z,101882.81
2022-10-17T14:11:32.658Z,101905.75
2022-10-17T14:13:59.949Z,101904.34
2022-10-17T14:16:32.918Z,101889.16
2022-10-17T14:18:59.326Z,101905.16
2022-10-17T14:21:40.966Z,101900.87
2022-10-17T14:24:28.123Z,101904.59
2022-10-17T14:26:58.645Z,101895.28
2022-10-17T14:29:29.618Z,101904.94
2022-10-17T14:32:08.542Z,101903.41
2022-10-17T14:34:37.562Z,101907.59
2022-10-17T14:37:12.480Z,101897.19
2022-10-17T14:39:39.259Z,101902.22
2022-10-17T14:42:05.583Z,101903.19
2022-10-17T14:44:34.091Z,101896.78
2022-10-17T14:47:30.837Z,101880.06
2022-10-17T14:50:07.938Z,101891.22
2022-10-17T14:52:35.484Z,101888.19
2022-10-17T14:55:20.420Z,101893.09
2022-10-17T14:57:47.011Z,101898.34
2022-10-17T15:00:15.155Z,101883.41
2022-10-17T15:02:41.738Z,101900.59
2022-10-17T15:05:12.978Z,101884.34
2022-10-17T15:07:39.776Z,101878.47
2022-10-17T15:10:06.545Z,101895.06
2022-10-17T15:12:33.366Z,101897.84
2022-10-17T15:14:59.594Z,101895.22
2022-10-17T15:17:30.957Z,101900.22
2022-10-17T15:19:58.340Z,101903.63
2022-10-17T15:22:24.740Z,101897.25
2022-10-17T15:24:51.074Z,101905.69
2022-10-17T15:27:22.740Z,101909.69
2022-10-17T15:29:49.900Z,101904.28
2022-10-17T15:32:16.552Z,101880.91
2022-10-17T15:34:43.171Z,101895.03
2022-10-17T15:37:24.480Z,101906.03
2022-10-17T15:39:54.137Z,101906.66
2022-10-17T15:42:28.848Z,101904.72
2022-10-17T15:44:56.066Z,101905.44
2022-10-17T15:47:27.227Z,101912.03
2022-10-17T15:49:55.092Z,101914.31
2022-10-17T15:52:22.436Z,101908.91
2022-10-17T15:54:48.818Z,101911.91
2022-10-17T15:57:29.710Z,101900.12
2022-10-17T15:59:57.708Z,101909.38
2022-10-17T16:02:24.394Z,101920.41
2022-10-17T16:04:52.182Z,101911.28
2022-10-17T16:07:19.913Z,101912.59
2022-10-17T16:09:46.683Z,101908.19
2022-10-17T16:12:17.745Z,101918.37
2022-10-17T16:14:44.367Z,101926.44
2022-10-17T16:17:17.275Z,101909.97
2022-10-17T16:19:44.101Z,101926.13
2022-10-17T16:22:36.511Z,101930.75
2022-10-17T16:25:09.729Z,101934.00
2022-10-17T16:27:37.113Z,101944.06
2022-10-17T16:30:06.221Z,101935.78
2022-10-17T16:32:32.793Z,101937.91
2022-10-17T16:35:01.932Z,101937.41
2022-10-17T16:37:30.856Z,101936.81
2022-10-17T16:39:57.123Z,101924.53
2022-10-17T16:42:23.471Z,101944.47
2022-10-17T16:44:50.327Z,101947.28
2022-10-17T16:47:19.730Z,101928.78
2022-10-17T16:49:46.033Z,101942.53
2022-10-17T16:52:13.109Z,101931.94
2022-10-17T16:54:39.341Z,101949.19
2022-10-17T16:57:05.614Z,101945.94
2022-10-17T16:59:32.253Z,101948.84
2022-10-17T17:01:58.498Z,101950.88
2022-10-17T17:04:24.761Z,101956.47
2022-10-17T17:06:51.264Z,101954.94
2022-10-17T17:09:17.598Z,101956.97
2022-10-17T17:11:43.924Z,101953.84
2022-10-17T17:14:11.102Z,101956.72
2022-10-17T17:16:37.342Z,101949.16
2022-10-17T17:19:10.485Z,101953.75
2022-10-17T17:21:37.204Z,101956.59
2022-10-17T17:24:04.279Z,101947.53
2022-10-17T17:26:33.223Z,101956.94
2022-10-17T17:29:00.431Z,101942.59
2022-10-17T17:31:29.151Z,101952.25
2022-10-17T17:36:30.723Z,101962.00
2022-10-17T17:38:59.979Z,101963.19
2022-10-17T17:41:26.900Z,101957.31
2022-10-17T17:43:53.909Z,101959.16
2022-10-17T17:46:21.442Z,101944.06
2022-10-17T17:48:48.906Z,101949.47
2022-10-17T17:51:17.667Z,101965.13
2022-10-17T17:53:44.326Z,101959.22
2022-10-17T17:56:16.668Z,101962.72
2022-10-17T17:58:48.473Z,101960.34
2022-10-17T18:01:19.320Z,101964.75
2022-10-17T18:03:46.862Z,101956.94
2022-10-17T18:06:13.907Z,101965.75
2022-10-17T18:08:40.149Z,101962.34
2022-10-17T18:11:06.693Z,101962.44
2022-10-17T18:13:32.930Z,101961.66
2022-10-17T18:16:00.781Z,101953.00
2022-10-17T18:18:29.223Z,101943.19
2022-10-17T18:20:55.910Z,101957.62
2022-10-17T18:23:22.879Z,101936.62
2022-10-17T18:25:56.033Z,101957.94
2022-10-17T18:28:22.858Z,101955.63
2022-10-17T18:30:49.473Z,101954.09
2022-10-17T18:33:15.846Z,101942.19
2022-10-17T18:35:42.141Z,101935.72
2022-10-17T18:38:08.675Z,101949.38
2022-10-17T18:40:34.945Z,101949.59
2022-10-17T18:46:47.866Z,101945.44
2022-10-17T18:49:23.219Z,101943.75
2022-10-17T18:51:49.803Z,101926.16
2022-10-17T18:54:20.496Z,101948.37
2022-10-17T18:56:50.978Z,101938.13
2022-10-17T18:59:18.651Z,101937.16
2022-10-17T19:01:45.052Z,101939.09
2022-10-17T19:04:11.808Z,101946.19
2022-10-17T19:06:38.986Z,101938.47
2022-10-17T19:09:07.604Z,101926.72
2022-10-17T19:11:34.970Z,101934.66
2022-10-17T19:14:02.918Z,101942.47
2022-10-17T19:16:34.794Z,101944.19
2022-10-17T19:19:06.920Z,101945.31
2022-10-17T19:21:34.035Z,101947.31
2022-10-17T19:24:02.894Z,101947.38
2022-10-17T19:26:31.223Z,101946.69
2022-10-17T19:29:00.408Z,101953.84
2022-10-17T19:31:28.824Z,101953.00
2022-10-17T19:33:56.246Z,101953.97
2022-10-17T19:36:27.586Z,101962.69
2022-10-17T19:38:57.120Z,101938.69
2022-10-17T19:41:23.796Z,101962.16
2022-10-17T19:43:50.141Z,101964.91
2022-10-17T19:46:18.654Z,101967.69
2022-10-17T19:48:45.184Z,101972.97
2022-10-17T19:51:13.367Z,101960.38
2022-10-17T19:53:39.993Z,101958.97
2022-10-17T19:56:06.834Z,101972.63
2022-10-17T19:58:34.110Z,101969.31
2022-10-17T20:01:01.217Z,101969.47
2022-10-17T20:03:28.205Z,101972.13
2022-10-17T20:05:55.112Z,101968.87
2022-10-17T20:08:21.579Z,101974.12
2022-10-17T20:10:48.240Z,101967.12
2022-10-17T20:13:14.741Z,101960.44
2022-10-17T20:15:41.337Z,101966.41
2022-10-17T20:18:08.404Z,101974.47
2022-10-17T20:20:35.702Z,101956.66
2022-10-17T20:23:02.715Z,101942.13
2022-10-17T20:25:29.332Z,101981.00
2022-10-17T20:27:55.722Z,101970.66
2022-10-17T20:30:21.998Z,101970.00
2022-10-17T20:32:48.513Z,101972.00
2022-10-17T20:35:14.761Z,101964.28
2022-10-17T20:37:42.672Z,101968.78
2022-10-17T20:40:33.659Z,101962.00
2022-10-17T20:42:56.234Z,101968.22
2022-10-17T20:45:37.357Z,101959.72
2022-10-17T20:48:15.072Z,101956.38
2022-10-17T20:50:42.842Z,101956.56
2022-10-17T20:53:34.749Z,101946.50
2022-10-17T20:56:04.735Z,101962.09
2022-10-17T20:58:31.103Z,101958.66
2022-10-17T21:00:57.612Z,101955.34
2022-10-17T21:03:24.338Z,101951.09
2022-10-17T21:05:50.566Z,101957.25
2022-10-17T21:08:17.082Z,101952.25
2022-10-17T21:10:43.307Z,101947.03
2022-10-17T21:13:09.836Z,101948.87
2022-10-17T21:15:36.393Z,101954.09
2022-10-17T21:18:02.618Z,101955.91
2022-10-17T21:20:28.873Z,101954.22
2022-10-17T21:22:55.409Z,101953.44
2022-10-17T21:25:21.663Z,101949.50
2022-10-17T21:27:47.897Z,101956.19
2022-10-17T21:30:14.397Z,101951.94
2022-10-17T21:32:51.618Z,101958.97
2022-10-17T21:35:18.462Z,101961.59
2022-10-17T21:37:44.681Z,101965.16
2022-10-17T21:40:11.616Z,101959.06
2022-10-17T21:42:38.133Z,101959.09
2022-10-17T21:45:10.687Z,101961.84
2022-10-17T21:48:11.186Z,101966.31
2022-10-17T21:50:32.941Z,101946.72
2022-10-17T21:52:59.465Z,101960.50
2022-10-17T21:55:25.682Z,101950.81
2022-10-17T21:57:51.936Z,101955.09
2022-10-17T22:00:18.609Z,101950.81
2022-10-17T22:02:45.160Z,101938.97
2022-10-17T22:05:11.447Z,101945.81
2022-10-17T22:07:37.722Z,101933.97
2022-10-17T22:10:04.628Z,101940.84
2022-10-17T22:12:31.047Z,101943.59
2022-10-17T22:14:57.530Z,101940.19
2022-10-17T22:17:24.298Z,101939.41
2022-10-17T22:19:50.509Z,101938.69
2022-10-17T22:22:16.773Z,101936.19
2022-10-17T22:24:43.292Z,101937.94
2022-10-17T22:27:12.278Z,101936.31
2022-10-17T22:29:39.653Z,101940.69
2022-10-17T22:32:06.170Z,101923.66
2022-10-17T22:34:32.416Z,101940.03
2022-10-17T22:36:58.647Z,101941.84
2022-10-17T22:39:25.485Z,101913.69
2022-10-17T22:41:51.719Z,101939.47
2022-10-17T22:44:18.013Z,101930.16
2022-10-17T22:46:44.508Z,101930.97
2022-10-17T22:49:10.787Z,101925.88
2022-10-17T22:51:37.003Z,101928.59
2022-10-17T22:54:03.513Z,101917.59
2022-10-17T22:56:29.775Z,101925.25
2022-10-17T22:58:56.043Z,101922.50
2022-10-17T23:01:24.072Z,101917.38
2022-10-17T23:03:51.354Z,101929.38
2022-10-17T23:06:18.104Z,101915.66
2022-10-17T23:08:44.636Z,101921.50
2022-10-17T23:11:12.718Z,101922.47
2022-10-17T23:13:40.673Z,101912.28
2022-10-17T23:16:07.836Z,101896.94
2022-10-17T23:18:34.136Z,101925.13
2022-10-17T23:21:00.442Z,101925.31
2022-10-17T23:23:26.962Z,101921.91
2022-10-17T23:25:53.200Z,101911.44
2022-10-17T23:28:19.669Z,101920.25
2022-10-17T23:30:46.397Z,101911.63
2022-10-17T23:33:13.726Z,101899.00
2022-10-17T23:35:40.448Z,101917.72
2022-10-17T23:38:07.098Z,101916.94
2022-10-17T23:40:34.779Z,101891.34
2022-10-17T23:43:01.016Z,101909.22
2022-10-17T23:45:27.621Z,101914.44
2022-10-17T23:47:53.914Z,101910.19
2022-10-17T23:50:20.147Z,101905.00
2022-10-17T23:52:46.741Z,101905.13
2022-10-17T23:55:13.009Z,101905.13
2022-10-17T23:57:39.239Z,101889.12
